sensor_id;sensor_type;location;lat;lon;timestamp;P1;durP1;ratioP1;P2;durP2;ratioP2
64894;SDS011;51588;53.702;10.208;2024-01-15T00:01:46;1.63;;;1.10;;
64894;SDS011;51588;53.702;10.208;2024-01-15T00:04:13;1.73;;;0.90;;
64894;SDS011;51588;53.702;10.208;2024-01-15T00:06:49;2.13;;;1.00;;
64894;SDS011;51588;53.702;10.208;2024-01-15T00:09:16;1.70;;;1.00;;
64894;SDS011;51588;53.702;10.208;2024-01-15T00:11:48;1.03;;;0.70;;
64894;SDS011;51588;53.702;10.208;2024-01-15T00:14:15;1.30;;;0.87;;
64894;SDS011;51588;53.702;10.208;2024-01-15T00:16:45;1.20;;;0.87;;
64894;SDS011;51588;53.702;10.208;2024-01-15T00:19:11;1.30;;;1.00;;
64894;SDS011;51588;53.702;10.208;2024-01-15T00:21:39;2.80;;;1.20;;
64894;SDS011;51588;53.702;10.208;2024-01-15T00:24:05;1.83;;;0.93;;
64894;SDS011;51588;53.702;10.208;2024-01-15T00:26:31;1.53;;;0.93;;
64894;SDS011;51588;53.702;10.208;2024-01-15T00:29:01;1.87;;;0.90;;
64894;SDS011;51588;53.702;10.208;2024-01-15T00:31:28;1.10;;;0.70;;
64894;SDS011;51588;53.702;10.208;2024-01-15T00:33:54;1.30;;;0.93;;
64894;SDS011;51588;53.702;10.208;2024-01-15T00:36:21;1.57;;;1.10;;
64894;SDS011;51588;53.702;10.208;2024-01-15T00:38:56;1.30;;;0.83;;
64894;SDS011;51588;53.702;10.208;2024-01-15T00:41:23;1.10;;;0.80;;
64894;SDS011;51588;53.702;10.208;2024-01-15T00:43:52;1.50;;;1.00;;
64894;SDS011;51588;53.702;10.208;2024-01-15T00:46:21;2.07;;;0.80;;
64894;SDS011;51588;53.702;10.208;2024-01-15T00:48:51;1.20;;;0.83;;
64894;SDS011;51588;53.702;10.208;2024-01-15T00:51:17;1.20;;;0.90;;
64894;SDS011;51588;53.702;10.208;2024-01-15T00:53:47;1.20;;;0.70;;
64894;SDS011;51588;53.702;10.208;2024-01-15T00:56:14;1.50;;;0.90;;
64894;SDS011;51588;53.702;10.208;2024-01-15T00:58:41;2.93;;;1.00;;
64894;SDS011;51588;53.702;10.208;2024-01-15T01:01:10;1.90;;;1.20;;
64894;SDS011;51588;53.702;10.208;2024-01-15T01:03:36;2.40;;;0.90;;
64894;SDS011;51588;53.702;10.208;2024-01-15T01:06:03;1.53;;;0.97;;
64894;SDS011;51588;53.702;10.208;2024-01-15T01:08:29;1.40;;;0.90;;
64894;SDS011;51588;53.702;10.208;2024-01-15T01:11:02;2.17;;;1.00;;
64894;SDS011;51588;53.702;10.208;2024-01-15T01:13:32;2.47;;;0.97;;
64894;SDS011;51588;53.702;10.208;2024-01-15T01:15:58;1.27;;;0.83;;
64894;SDS011;51588;53.702;10.208;2024-01-15T01:18:27;2.20;;;1.20;;
64894;SDS011;51588;53.702;10.208;2024-01-15T01:20:57;2.03;;;0.90;;
64894;SDS011;51588;53.702;10.208;2024-01-15T01:23:26;1.63;;;0.90;;
64894;SDS011;51588;53.702;10.208;2024-01-15T01:25:52;1.30;;;0.87;;
64894;SDS011;51588;53.702;10.208;2024-01-15T01:28:19;1.77;;;0.90;;
64894;SDS011;51588;53.702;10.208;2024-01-15T01:30:50;1.93;;;1.20;;
64894;SDS011;51588;53.702;10.208;2024-01-15T01:33:16;1.10;;;0.90;;
64894;SDS011;51588;53.702;10.208;2024-01-15T01:35:48;2.47;;;0.87;;
64894;SDS011;51588;53.702;10.208;2024-01-15T01:38:15;1.60;;;1.00;;
64894;SDS011;51588;53.702;10.208;2024-01-15T01:40:41;2.03;;;1.00;;
64894;SDS011;51588;53.702;10.208;2024-01-15T01:43:08;2.33;;;1.10;;
64894;SDS011;51588;53.702;10.208;2024-01-15T01:45:41;2.50;;;0.90;;
64894;SDS011;51588;53.702;10.208;2024-01-15T01:48:09;1.70;;;0.90;;
64894;SDS011;51588;53.702;10.208;2024-01-15T01:50:35;1.80;;;1.10;;
64894;SDS011;51588;53.702;10.208;2024-01-15T01:53:04;3.10;;;1.03;;
64894;SDS011;51588;53.702;10.208;2024-01-15T01:55:30;1.63;;;1.00;;
64894;SDS011;51588;53.702;10.208;2024-01-15T01:57:59;2.03;;;1.10;;
64894;SDS011;51588;53.702;10.208;2024-01-15T02:00:26;1.40;;;0.90;;
64894;SDS011;51588;53.702;10.208;2024-01-15T02:02:52;2.20;;;1.13;;
64894;SDS011;51588;53.702;10.208;2024-01-15T02:05:22;1.50;;;1.00;;
64894;SDS011;51588;53.702;10.208;2024-01-15T02:07:51;1.50;;;0.87;;
64894;SDS011;51588;53.702;10.208;2024-01-15T02:10:18;2.70;;;0.90;;
64894;SDS011;51588;53.702;10.208;2024-01-15T02:12:47;3.17;;;1.10;;
64894;SDS011;51588;53.702;10.208;2024-01-15T02:15:14;1.40;;;1.00;;
64894;SDS011;51588;53.702;10.208;2024-01-15T02:17:56;1.67;;;0.90;;
64894;SDS011;51588;53.702;10.208;2024-01-15T02:20:24;1.63;;;1.00;;
64894;SDS011;51588;53.702;10.208;2024-01-15T02:22:50;1.63;;;1.00;;
64894;SDS011;51588;53.702;10.208;2024-01-15T02:25:18;1.80;;;1.00;;
64894;SDS011;51588;53.702;10.208;2024-01-15T02:27:45;1.00;;;0.80;;
64894;SDS011;51588;53.702;10.208;2024-01-15T02:30:12;1.63;;;1.00;;
64894;SDS011;51588;53.702;10.208;2024-01-15T02:32:39;1.40;;;1.07;;
64894;SDS011;51588;53.702;10.208;2024-01-15T02:35:05;1.50;;;0.90;;
64894;SDS011;51588;53.702;10.208;2024-01-15T02:37:32;1.43;;;1.00;;
64894;SDS011;51588;53.702;10.208;2024-01-15T02:39:58;1.47;;;0.80;;
64894;SDS011;51588;53.702;10.208;2024-01-15T02:42:27;1.87;;;1.10;;
64894;SDS011;51588;53.702;10.208;2024-01-15T02:44:53;3.07;;;1.00;;
64894;SDS011;51588;53.702;10.208;2024-01-15T02:47:20;2.77;;;1.20;;
64894;SDS011;51588;53.702;10.208;2024-01-15T02:49:46;1.93;;;1.07;;
64894;SDS011;51588;53.702;10.208;2024-01-15T02:52:12;1.27;;;0.93;;
64894;SDS011;51588;53.702;10.208;2024-01-15T02:54:39;1.20;;;0.90;;
64894;SDS011;51588;53.702;10.208;2024-01-15T02:57:05;1.27;;;0.80;;
64894;SDS011;51588;53.702;10.208;2024-01-15T02:59:33;1.40;;;0.90;;
64894;SDS011;51588;53.702;10.208;2024-01-15T03:01:59;1.80;;;1.00;;
64894;SDS011;51588;53.702;10.208;2024-01-15T03:04:25;1.93;;;1.00;;
64894;SDS011;51588;53.702;10.208;2024-01-15T03:06:52;2.10;;;1.17;;
64894;SDS011;51588;53.702;10.208;2024-01-15T03:09:18;1.30;;;0.90;;
64894;SDS011;51588;53.702;10.208;2024-01-15T03:11:44;1.13;;;0.80;;
64894;SDS011;51588;53.702;10.208;2024-01-15T03:14:11;2.03;;;1.00;;
64894;SDS011;51588;53.702;10.208;2024-01-15T03:16:38;1.23;;;0.97;;
64894;SDS011;51588;53.702;10.208;2024-01-15T03:19:05;2.30;;;1.00;;
64894;SDS011;51588;53.702;10.208;2024-01-15T03:21:31;1.90;;;1.10;;
64894;SDS011;51588;53.702;10.208;2024-01-15T03:24:01;1.47;;;0.87;;
64894;SDS011;51588;53.702;10.208;2024-01-15T03:26:27;2.03;;;1.00;;
64894;SDS011;51588;53.702;10.208;2024-01-15T03:28:53;2.00;;;0.80;;
64894;SDS011;51588;53.702;10.208;2024-01-15T03:31:20;2.77;;;1.10;;
64894;SDS011;51588;53.702;10.208;2024-01-15T03:33:51;1.97;;;1.13;;
64894;SDS011;51588;53.702;10.208;2024-01-15T03:36:17;2.07;;;1.10;;
64894;SDS011;51588;53.702;10.208;2024-01-15T03:38:46;1.10;;;0.90;;
64894;SDS011;51588;53.702;10.208;2024-01-15T03:41:12;1.57;;;0.90;;
64894;SDS011;51588;53.702;10.208;2024-01-15T03:43:41;2.40;;;0.90;;
64894;SDS011;51588;53.702;10.208;2024-01-15T03:46:08;1.83;;;1.10;;
64894;SDS011;51588;53.702;10.208;2024-01-15T03:48:34;2.80;;;1.03;;
64894;SDS011;51588;53.702;10.208;2024-01-15T03:51:04;2.20;;;1.03;;
64894;SDS011;51588;53.702;10.208;2024-01-15T03:53:31;2.40;;;1.20;;
64894;SDS011;51588;53.702;10.208;2024-01-15T03:55:57;1.63;;;0.97;;
64894;SDS011;51588;53.702;10.208;2024-01-15T03:58:23;1.40;;;1.10;;
64894;SDS011;51588;53.702;10.208;2024-01-15T04:00:50;2.90;;;1.00;;
64894;SDS011;51588;53.702;10.208;2024-01-15T04:03:26;2.60;;;1.10;;
64894;SDS011;51588;53.702;10.208;2024-01-15T04:05:53;1.60;;;0.90;;
64894;SDS011;51588;53.702;10.208;2024-01-15T04:08:20;1.93;;;0.83;;
64894;SDS011;51588;53.702;10.208;2024-01-15T04:10:47;1.97;;;1.20;;
64894;SDS011;51588;53.702;10.208;2024-01-15T04:13:13;2.20;;;1.00;;
64894;SDS011;51588;53.702;10.208;2024-01-15T04:15:43;1.70;;;1.27;;
64894;SDS011;51588;53.702;10.208;2024-01-15T04:18:20;1.63;;;1.17;;
64894;SDS011;51588;53.702;10.208;2024-01-15T04:20:46;1.57;;;1.00;;
64894;SDS011;51588;53.702;10.208;2024-01-15T04:23:12;2.33;;;1.10;;
64894;SDS011;51588;53.702;10.208;2024-01-15T04:25:40;2.70;;;1.10;;
64894;SDS011;51588;53.702;10.208;2024-01-15T04:28:07;2.13;;;1.30;;
64894;SDS011;51588;53.702;10.208;2024-01-15T04:30:34;3.67;;;1.20;;
64894;SDS011;51588;53.702;10.208;2024-01-15T04:33:00;2.07;;;1.13;;
64894;SDS011;51588;53.702;10.208;2024-01-15T04:35:33;3.30;;;1.20;;
64894;SDS011;51588;53.702;10.208;2024-01-15T04:38:03;1.73;;;1.20;;
64894;SDS011;51588;53.702;10.208;2024-01-15T04:40:29;2.20;;;1.07;;
64894;SDS011;51588;53.702;10.208;2024-01-15T04:42:57;3.90;;;1.63;;
64894;SDS011;51588;53.702;10.208;2024-01-15T04:45:23;2.13;;;1.20;;
64894;SDS011;51588;53.702;10.208;2024-01-15T04:47:53;2.17;;;1.20;;
64894;SDS011;51588;53.702;10.208;2024-01-15T04:50:33;2.27;;;1.00;;
64894;SDS011;51588;53.702;10.208;2024-01-15T04:53:00;2.00;;;1.20;;
64894;SDS011;51588;53.702;10.208;2024-01-15T04:55:26;1.60;;;1.00;;
64894;SDS011;51588;53.702;10.208;2024-01-15T04:57:53;3.50;;;1.90;;
64894;SDS011;51588;53.702;10.208;2024-01-15T05:00:23;2.50;;;1.10;;
64894;SDS011;51588;53.702;10.208;2024-01-15T05:02:56;2.57;;;1.13;;
64894;SDS011;51588;53.702;10.208;2024-01-15T05:05:25;1.70;;;1.10;;
64894;SDS011;51588;53.702;10.208;2024-01-15T05:07:52;4.27;;;1.30;;
64894;SDS011;51588;53.702;10.208;2024-01-15T05:10:24;3.13;;;1.33;;
64894;SDS011;51588;53.702;10.208;2024-01-15T05:12:51;3.03;;;1.27;;
64894;SDS011;51588;53.702;10.208;2024-01-15T05:15:17;3.20;;;1.27;;
64894;SDS011;51588;53.702;10.208;2024-01-15T05:17:50;2.73;;;1.53;;
64894;SDS011;51588;53.702;10.208;2024-01-15T05:20:17;3.00;;;1.40;;
64894;SDS011;51588;53.702;10.208;2024-01-15T05:22:43;2.13;;;1.07;;
64894;SDS011;51588;53.702;10.208;2024-01-15T05:25:10;1.90;;;1.00;;
64894;SDS011;51588;53.702;10.208;2024-01-15T05:27:36;3.80;;;1.47;;
64894;SDS011;51588;53.702;10.208;2024-01-15T05:30:03;1.83;;;0.90;;
64894;SDS011;51588;53.702;10.208;2024-01-15T05:32:36;2.10;;;1.17;;
64894;SDS011;51588;53.702;10.208;2024-01-15T05:35:04;2.60;;;1.00;;
64894;SDS011;51588;53.702;10.208;2024-01-15T05:37:30;2.63;;;1.47;;
64894;SDS011;51588;53.702;10.208;2024-01-15T05:40:06;3.17;;;1.23;;
64894;SDS011;51588;53.702;10.208;2024-01-15T05:42:33;4.47;;;1.10;;
64894;SDS011;51588;53.702;10.208;2024-01-15T05:45:02;3.80;;;1.30;;
64894;SDS011;51588;53.702;10.208;2024-01-15T05:47:29;4.33;;;1.50;;
64894;SDS011;51588;53.702;10.208;2024-01-15T05:49:56;3.87;;;1.50;;
64894;SDS011;51588;53.702;10.208;2024-01-15T05:52:24;2.93;;;1.27;;
64894;SDS011;51588;53.702;10.208;2024-01-15T05:54:51;2.97;;;1.40;;
64894;SDS011;51588;53.702;10.208;2024-01-15T05:57:31;4.10;;;1.37;;
64894;SDS011;51588;53.702;10.208;2024-01-15T05:59:57;2.03;;;1.13;;
64894;SDS011;51588;53.702;10.208;2024-01-15T06:02:24;2.60;;;1.43;;
64894;SDS011;51588;53.702;10.208;2024-01-15T06:04:56;2.60;;;1.17;;
64894;SDS011;51588;53.702;10.208;2024-01-15T06:07:27;3.83;;;1.47;;
64894;SDS011;51588;53.702;10.208;2024-01-15T06:09:53;7.20;;;2.03;;
64894;SDS011;51588;53.702;10.208;2024-01-15T06:12:22;4.77;;;1.70;;
64894;SDS011;51588;53.702;10.208;2024-01-15T06:14:48;7.87;;;2.03;;
64894;SDS011;51588;53.702;10.208;2024-01-15T06:17:15;4.80;;;1.73;;
64894;SDS011;51588;53.702;10.208;2024-01-15T06:19:44;5.10;;;1.50;;
64894;SDS011;51588;53.702;10.208;2024-01-15T06:22:11;6.03;;;1.50;;
64894;SDS011;51588;53.702;10.208;2024-01-15T06:24:42;5.03;;;1.57;;
64894;SDS011;51588;53.702;10.208;2024-01-15T06:27:08;6.30;;;1.83;;
64894;SDS011;51588;53.702;10.208;2024-01-15T06:29:37;8.40;;;2.53;;
64894;SDS011;51588;53.702;10.208;2024-01-15T06:32:04;12.47;;;2.87;;
64894;SDS011;51588;53.702;10.208;2024-01-15T06:34:30;14.47;;;3.10;;
64894;SDS011;51588;53.702;10.208;2024-01-15T06:36:57;15.80;;;2.73;;
64894;SDS011;51588;53.702;10.208;2024-01-15T06:39:23;11.13;;;2.70;;
64894;SDS011;51588;53.702;10.208;2024-01-15T06:41:53;8.00;;;2.07;;
64894;SDS011;51588;53.702;10.208;2024-01-15T06:44:22;8.77;;;2.47;;
64894;SDS011;51588;53.702;10.208;2024-01-15T06:46:52;11.40;;;2.37;;
64894;SDS011;51588;53.702;10.208;2024-01-15T06:49:22;10.17;;;2.77;;
64894;SDS011;51588;53.702;10.208;2024-01-15T06:51:48;8.57;;;2.33;;
64894;SDS011;51588;53.702;10.208;2024-01-15T06:54:18;14.57;;;2.87;;
64894;SDS011;51588;53.702;10.208;2024-01-15T06:56:44;9.20;;;2.93;;
64894;SDS011;51588;53.702;10.208;2024-01-15T06:59:12;9.30;;;2.27;;
64894;SDS011;51588;53.702;10.208;2024-01-15T07:01:38;6.63;;;2.37;;
64894;SDS011;51588;53.702;10.208;2024-01-15T07:04:05;6.67;;;2.00;;
64894;SDS011;51588;53.702;10.208;2024-01-15T07:06:31;11.83;;;2.10;;
64894;SDS011;51588;53.702;10.208;2024-01-15T07:08:58;7.80;;;1.90;;
64894;SDS011;51588;53.702;10.208;2024-01-15T07:11:24;9.10;;;2.77;;
64894;SDS011;51588;53.702;10.208;2024-01-15T07:13:50;6.03;;;2.13;;
64894;SDS011;51588;53.702;10.208;2024-01-15T07:16:23;7.67;;;2.33;;
64894;SDS011;51588;53.702;10.208;2024-01-15T07:18:55;14.80;;;3.27;;
64894;SDS011;51588;53.702;10.208;2024-01-15T07:21:24;26.03;;;4.90;;
64894;SDS011;51588;53.702;10.208;2024-01-15T07:23:50;21.70;;;4.87;;
64894;SDS011;51588;53.702;10.208;2024-01-15T07:26:16;19.10;;;5.07;;
64894;SDS011;51588;53.702;10.208;2024-01-15T07:28:43;14.07;;;4.70;;
64894;SDS011;51588;53.702;10.208;2024-01-15T07:31:10;14.90;;;4.13;;
64894;SDS011;51588;53.702;10.208;2024-01-15T07:33:38;16.67;;;4.27;;
64894;SDS011;51588;53.702;10.208;2024-01-15T07:36:05;13.10;;;4.20;;
64894;SDS011;51588;53.702;10.208;2024-01-15T07:38:31;12.87;;;3.90;;
64894;SDS011;51588;53.702;10.208;2024-01-15T07:41:05;16.20;;;4.23;;
64894;SDS011;51588;53.702;10.208;2024-01-15T07:43:32;12.20;;;3.50;;
64894;SDS011;51588;53.702;10.208;2024-01-15T07:46:00;16.77;;;3.70;;
64894;SDS011;51588;53.702;10.208;2024-01-15T07:48:27;11.03;;;3.00;;
64894;SDS011;51588;53.702;10.208;2024-01-15T07:50:55;9.30;;;3.20;;
64894;SDS011;51588;53.702;10.208;2024-01-15T07:53:21;11.27;;;3.23;;
64894;SDS011;51588;53.702;10.208;2024-01-15T07:55:47;8.63;;;3.07;;
64894;SDS011;51588;53.702;10.208;2024-01-15T07:58:14;10.73;;;3.20;;
64894;SDS011;51588;53.702;10.208;2024-01-15T08:00:40;12.20;;;3.20;;
64894;SDS011;51588;53.702;10.208;2024-01-15T08:03:06;8.70;;;2.77;;
64894;SDS011;51588;53.702;10.208;2024-01-15T08:05:36;8.23;;;2.90;;
64894;SDS011;51588;53.702;10.208;2024-01-15T08:08:04;10.50;;;2.93;;
64894;SDS011;51588;53.702;10.208;2024-01-15T08:10:36;7.80;;;2.63;;
64894;SDS011;51588;53.702;10.208;2024-01-15T08:13:03;9.97;;;3.40;;
64894;SDS011;51588;53.702;10.208;2024-01-15T08:15:29;6.83;;;2.73;;
64894;SDS011;51588;53.702;10.208;2024-01-15T08:17:56;9.60;;;2.90;;
64894;SDS011;51588;53.702;10.208;2024-01-15T08:20:22;8.03;;;2.57;;
64894;SDS011;51588;53.702;10.208;2024-01-15T08:22:48;10.17;;;2.77;;
64894;SDS011;51588;53.702;10.208;2024-01-15T08:25:16;6.53;;;2.87;;
64894;SDS011;51588;53.702;10.208;2024-01-15T08:27:43;9.43;;;2.70;;
64894;SDS011;51588;53.702;10.208;2024-01-15T08:30:10;7.17;;;3.10;;
64894;SDS011;51588;53.702;10.208;2024-01-15T08:32:36;7.70;;;2.57;;
64894;SDS011;51588;53.702;10.208;2024-01-15T08:35:07;8.67;;;2.50;;
64894;SDS011;51588;53.702;10.208;2024-01-15T08:37:33;11.43;;;2.67;;
64894;SDS011;51588;53.702;10.208;2024-01-15T08:40:00;6.63;;;2.20;;
64894;SDS011;51588;53.702;10.208;2024-01-15T08:42:28;6.03;;;2.43;;
64894;SDS011;51588;53.702;10.208;2024-01-15T08:44:54;8.20;;;2.50;;
64894;SDS011;51588;53.702;10.208;2024-01-15T08:47:23;9.07;;;2.63;;
64894;SDS011;51588;53.702;10.208;2024-01-15T08:49:50;7.90;;;2.80;;
64894;SDS011;51588;53.702;10.208;2024-01-15T08:52:17;7.30;;;2.47;;
64894;SDS011;51588;53.702;10.208;2024-01-15T08:54:43;5.27;;;2.00;;
64894;SDS011;51588;53.702;10.208;2024-01-15T08:57:10;7.70;;;2.80;;
64894;SDS011;51588;53.702;10.208;2024-01-15T08:59:38;7.20;;;2.43;;
64894;SDS011;51588;53.702;10.208;2024-01-15T09:02:04;7.80;;;2.57;;
64894;SDS011;51588;53.702;10.208;2024-01-15T09:04:31;6.10;;;2.30;;
64894;SDS011;51588;53.702;10.208;2024-01-15T09:07:03;7.30;;;2.13;;
64894;SDS011;51588;53.702;10.208;2024-01-15T09:09:30;6.70;;;2.10;;
64894;SDS011;51588;53.702;10.208;2024-01-15T09:11:59;7.37;;;1.83;;
64894;SDS011;51588;53.702;10.208;2024-01-15T09:14:25;4.03;;;1.93;;
64894;SDS011;51588;53.702;10.208;2024-01-15T09:17:07;5.17;;;2.20;;
64894;SDS011;51588;53.702;10.208;2024-01-15T09:19:33;5.37;;;2.17;;
64894;SDS011;51588;53.702;10.208;2024-01-15T09:21:59;5.07;;;2.20;;
64894;SDS011;51588;53.702;10.208;2024-01-15T09:24:26;5.07;;;1.83;;
64894;SDS011;51588;53.702;10.208;2024-01-15T09:26:52;5.30;;;2.00;;
64894;SDS011;51588;53.702;10.208;2024-01-15T09:29:22;5.50;;;1.97;;
64894;SDS011;51588;53.702;10.208;2024-01-15T09:31:48;3.97;;;1.87;;
64894;SDS011;51588;53.702;10.208;2024-01-15T09:34:17;5.60;;;1.80;;
64894;SDS011;51588;53.702;10.208;2024-01-15T09:36:43;5.73;;;2.10;;
64894;SDS011;51588;53.702;10.208;2024-01-15T09:39:09;4.93;;;2.00;;
64894;SDS011;51588;53.702;10.208;2024-01-15T09:41:36;5.33;;;2.00;;
64894;SDS011;51588;53.702;10.208;2024-01-15T09:44:02;4.60;;;1.90;;
64894;SDS011;51588;53.702;10.208;2024-01-15T09:46:29;5.23;;;1.70;;
64894;SDS011;51588;53.702;10.208;2024-01-15T09:48:55;3.57;;;1.93;;
64894;SDS011;51588;53.702;10.208;2024-01-15T09:51:23;3.93;;;1.70;;
64894;SDS011;51588;53.702;10.208;2024-01-15T09:53:50;4.50;;;1.80;;
64894;SDS011;51588;53.702;10.208;2024-01-15T09:56:16;3.33;;;1.80;;
64894;SDS011;51588;53.702;10.208;2024-01-15T09:58:43;2.83;;;1.60;;
64894;SDS011;51588;53.702;10.208;2024-01-15T10:01:10;4.10;;;1.90;;
64894;SDS011;51588;53.702;10.208;2024-01-15T10:03:37;3.50;;;1.60;;
64894;SDS011;51588;53.702;10.208;2024-01-15T10:06:04;4.87;;;1.80;;
64894;SDS011;51588;53.702;10.208;2024-01-15T10:08:32;2.60;;;1.53;;
64894;SDS011;51588;53.702;10.208;2024-01-15T10:10:58;3.47;;;1.83;;
64894;SDS011;51588;53.702;10.208;2024-01-15T10:13:25;3.10;;;1.77;;
64894;SDS011;51588;53.702;10.208;2024-01-15T10:15:51;3.90;;;1.80;;
64894;SDS011;51588;53.702;10.208;2024-01-15T10:18:19;4.20;;;1.60;;
64894;SDS011;51588;53.702;10.208;2024-01-15T10:20:48;3.10;;;1.70;;
64894;SDS011;51588;53.702;10.208;2024-01-15T10:23:14;3.30;;;1.50;;
64894;SDS011;51588;53.702;10.208;2024-01-15T10:25:42;3.30;;;1.73;;
64894;SDS011;51588;53.702;10.208;2024-01-15T10:28:09;3.17;;;1.83;;
64894;SDS011;51588;53.702;10.208;2024-01-15T10:30:35;6.50;;;1.90;;
64894;SDS011;51588;53.702;10.208;2024-01-15T10:33:05;4.87;;;1.73;;
64894;SDS011;51588;53.702;10.208;2024-01-15T10:35:34;4.10;;;1.87;;
64894;SDS011;51588;53.702;10.208;2024-01-15T10:38:01;5.20;;;1.93;;
64894;SDS011;51588;53.702;10.208;2024-01-15T10:40:28;5.03;;;1.80;;
64894;SDS011;51588;53.702;10.208;2024-01-15T10:43:02;4.33;;;1.57;;
64894;SDS011;51588;53.702;10.208;2024-01-15T10:45:32;3.83;;;1.80;;
64894;SDS011;51588;53.702;10.208;2024-01-15T10:47:58;4.27;;;2.10;;
64894;SDS011;51588;53.702;10.208;2024-01-15T10:50:31;4.53;;;1.70;;
64894;SDS011;51588;53.702;10.208;2024-01-15T10:52:58;4.63;;;1.60;;
64894;SDS011;51588;53.702;10.208;2024-01-15T10:55:24;3.70;;;1.87;;
64894;SDS011;51588;53.702;10.208;2024-01-15T10:57:51;2.10;;;1.43;;
64894;SDS011;51588;53.702;10.208;2024-01-15T11:00:19;3.27;;;1.70;;
64894;SDS011;51588;53.702;10.208;2024-01-15T11:02:46;2.77;;;1.60;;
64894;SDS011;51588;53.702;10.208;2024-01-15T11:05:13;4.93;;;1.87;;
64894;SDS011;51588;53.702;10.208;2024-01-15T11:07:39;3.87;;;1.97;;
64894;SDS011;51588;53.702;10.208;2024-01-15T11:10:06;4.60;;;1.90;;
64894;SDS011;51588;53.702;10.208;2024-01-15T11:12:35;5.47;;;1.50;;
64894;SDS011;51588;53.702;10.208;2024-01-15T11:15:02;3.30;;;1.50;;
64894;SDS011;51588;53.702;10.208;2024-01-15T11:20:15;3.50;;;1.60;;
64894;SDS011;51588;53.702;10.208;2024-01-15T11:22:48;4.57;;;1.80;;
64894;SDS011;51588;53.702;10.208;2024-01-15T11:25:15;5.40;;;1.97;;
64894;SDS011;51588;53.702;10.208;2024-01-15T11:27:47;5.13;;;2.07;;
64894;SDS011;51588;53.702;10.208;2024-01-15T11:30:16;4.97;;;2.10;;
64894;SDS011;51588;53.702;10.208;2024-01-15T11:32:56;3.80;;;1.70;;
64894;SDS011;51588;53.702;10.208;2024-01-15T11:35:26;3.63;;;1.50;;
64894;SDS011;51588;53.702;10.208;2024-01-15T11:38:21;3.30;;;1.57;;
64894;SDS011;51588;53.702;10.208;2024-01-15T11:40:58;4.43;;;1.63;;
64894;SDS011;51588;53.702;10.208;2024-01-15T11:43:28;4.33;;;1.70;;
64894;SDS011;51588;53.702;10.208;2024-01-15T11:45:56;3.27;;;1.60;;
64894;SDS011;51588;53.702;10.208;2024-01-15T11:48:23;2.70;;;1.43;;
64894;SDS011;51588;53.702;10.208;2024-01-15T11:50:59;4.03;;;1.53;;
64894;SDS011;51588;53.702;10.208;2024-01-15T11:53:31;3.93;;;1.47;;
64894;SDS011;51588;53.702;10.208;2024-01-15T11:55:59;3.80;;;1.50;;
64894;SDS011;51588;53.702;10.208;2024-01-15T11:58:29;3.67;;;1.70;;
64894;SDS011;51588;53.702;10.208;2024-01-15T12:00:58;3.47;;;1.37;;
64894;SDS011;51588;53.702;10.208;2024-01-15T12:03:25;2.70;;;1.30;;
64894;SDS011;51588;53.702;10.208;2024-01-15T12:05:52;3.03;;;1.47;;
64894;SDS011;51588;53.702;10.208;2024-01-15T12:08:20;3.77;;;1.60;;
64894;SDS011;51588;53.702;10.208;2024-01-15T12:10:54;3.00;;;1.40;;
64894;SDS011;51588;53.702;10.208;2024-01-15T12:13:21;1.70;;;1.20;;
64894;SDS011;51588;53.702;10.208;2024-01-15T12:15:51;3.43;;;1.30;;
64894;SDS011;51588;53.702;10.208;2024-01-15T12:18:18;3.23;;;1.43;;
64894;SDS011;51588;53.702;10.208;2024-01-15T12:20:44;3.73;;;1.83;;
64894;SDS011;51588;53.702;10.208;2024-01-15T12:23:12;1.90;;;1.20;;
64894;SDS011;51588;53.702;10.208;2024-01-15T12:25:39;3.10;;;1.60;;
64894;SDS011;51588;53.702;10.208;2024-01-15T12:28:07;3.60;;;1.57;;
64894;SDS011;51588;53.702;10.208;2024-01-15T12:30:34;3.30;;;1.47;;
64894;SDS011;51588;53.702;10.208;2024-01-15T12:33:03;3.60;;;1.50;;
64894;SDS011;51588;53.702;10.208;2024-01-15T12:35:33;2.27;;;1.10;;
64894;SDS011;51588;53.702;10.208;2024-01-15T12:38:02;3.17;;;1.30;;
64894;SDS011;51588;53.702;10.208;2024-01-15T12:40:32;2.37;;;1.50;;
64894;SDS011;51588;53.702;10.208;2024-01-15T12:42:59;3.60;;;1.40;;
64894;SDS011;51588;53.702;10.208;2024-01-15T12:45:29;1.97;;;1.10;;
64894;SDS011;51588;53.702;10.208;2024-01-15T12:47:56;3.93;;;1.60;;
64894;SDS011;51588;53.702;10.208;2024-01-15T12:50:23;3.00;;;1.40;;
64894;SDS011;51588;53.702;10.208;2024-01-15T12:52:53;1.93;;;1.10;;
64894;SDS011;51588;53.702;10.208;2024-01-15T12:55:22;1.83;;;1.33;;
64894;SDS011;51588;53.702;10.208;2024-01-15T12:57:49;3.10;;;1.37;;
64894;SDS011;51588;53.702;10.208;2024-01-15T13:00:20;2.80;;;1.60;;
64894;SDS011;51588;53.702;10.208;2024-01-15T13:02:48;1.77;;;1.30;;
64894;SDS011;51588;53.702;10.208;2024-01-15T13:05:16;2.17;;;1.27;;
64894;SDS011;51588;53.702;10.208;2024-01-15T13:07:42;6.40;;;1.37;;
64894;SDS011;51588;53.702;10.208;2024-01-15T13:10:09;2.20;;;1.20;;
64894;SDS011;51588;53.702;10.208;2024-01-15T13:12:41;1.63;;;1.17;;
64894;SDS011;51588;53.702;10.208;2024-01-15T13:15:08;3.60;;;1.40;;
64894;SDS011;51588;53.702;10.208;2024-01-15T13:17:36;1.50;;;1.10;;
64894;SDS011;51588;53.702;10.208;2024-01-15T13:20:05;2.13;;;1.23;;
64894;SDS011;51588;53.702;10.208;2024-01-15T13:22:31;4.67;;;1.60;;
64894;SDS011;51588;53.702;10.208;2024-01-15T13:25:04;1.73;;;1.10;;
64894;SDS011;51588;53.702;10.208;2024-01-15T13:27:35;1.57;;;1.20;;
64894;SDS011;51588;53.702;10.208;2024-01-15T13:30:02;1.40;;;1.10;;
64894;SDS011;51588;53.702;10.208;2024-01-15T13:32:32;3.03;;;1.20;;
64894;SDS011;51588;53.702;10.208;2024-01-15T13:35:00;3.40;;;1.57;;
64894;SDS011;51588;53.702;10.208;2024-01-15T13:37:29;2.50;;;1.40;;
64894;SDS011;51588;53.702;10.208;2024-01-15T13:39:55;3.10;;;1.40;;
64894;SDS011;51588;53.702;10.208;2024-01-15T13:42:21;2.40;;;1.37;;
64894;SDS011;51588;53.702;10.208;2024-01-15T13:44:48;5.30;;;1.50;;
64894;SDS011;51588;53.702;10.208;2024-01-15T13:47:17;2.57;;;1.63;;
64894;SDS011;51588;53.702;10.208;2024-01-15T13:49:45;3.17;;;1.43;;
64894;SDS011;51588;53.702;10.208;2024-01-15T13:52:12;2.73;;;1.37;;
64894;SDS011;51588;53.702;10.208;2024-01-15T13:54:39;2.77;;;1.80;;
64894;SDS011;51588;53.702;10.208;2024-01-15T13:57:06;2.00;;;1.37;;
64894;SDS011;51588;53.702;10.208;2024-01-15T13:59:32;1.83;;;1.07;;
64894;SDS011;51588;53.702;10.208;2024-01-15T14:01:59;2.80;;;1.63;;
64894;SDS011;51588;53.702;10.208;2024-01-15T14:04:25;2.70;;;1.60;;
64894;SDS011;51588;53.702;10.208;2024-01-15T14:06:51;2.90;;;1.37;;
64894;SDS011;51588;53.702;10.208;2024-01-15T14:09:24;4.77;;;1.37;;
64894;SDS011;51588;53.702;10.208;2024-01-15T14:11:51;4.53;;;1.40;;
64894;SDS011;51588;53.702;10.208;2024-01-15T14:14:18;3.93;;;1.40;;
64894;SDS011;51588;53.702;10.208;2024-01-15T14:16:44;1.60;;;1.20;;
64894;SDS011;51588;53.702;10.208;2024-01-15T14:19:14;2.33;;;1.40;;
64894;SDS011;51588;53.702;10.208;2024-01-15T14:21:40;2.30;;;1.47;;
64894;SDS011;51588;53.702;10.208;2024-01-15T14:24:06;2.80;;;1.43;;
64894;SDS011;51588;53.702;10.208;2024-01-15T14:26:33;1.70;;;1.30;;
64894;SDS011;51588;53.702;10.208;2024-01-15T14:29:01;2.60;;;1.33;;
64894;SDS011;51588;53.702;10.208;2024-01-15T14:31:28;2.03;;;1.10;;
64894;SDS011;51588;53.702;10.208;2024-01-15T14:34:01;2.63;;;1.60;;
64894;SDS011;51588;53.702;10.208;2024-01-15T14:36:28;1.63;;;1.30;;
64894;SDS011;51588;53.702;10.208;2024-01-15T14:38:54;1.97;;;1.50;;
64894;SDS011;51588;53.702;10.208;2024-01-15T14:41:23;1.70;;;1.10;;